Time;durP1;ratioP1;P1;durP2;ratioP2;P2;SDS_P1;SDS_P2;PMS_P1;PMS_P2;Temp;Humidity;BMP_temperature;BMP_pressure;BME280_temperature;BME280_humidity;BME280_pressure;Samples;Min_cycle;Max_cycle;Signal;HPM_P1;HPM_P2
2022/09/13 00:00:12;;;;;;;2.90;2.70;;;;;;;24.13;38.84;94882.75;6156208;28;104346;-76
2022/09/13 00:03:15;;;;;;;4.27;2.63;;;;;;;24.12;39.04;94878.50;6161803;28;103039;-75
2022/09/13 00:06:20;;;;;;;3.03;2.83;;;;;;;24.09;38.70;94876.47;6165418;28;104175;-77
2022/09/13 00:09:24;;;;;;;3.20;3.00;;;;;;;24.09;38.80;94878.38;6164065;28;103084;-77
2022/09/13 00:12:27;;;;;;;3.07;2.87;;;;;;;24.10;38.96;94870.03;6158900;28;106908;-76
2022/09/13 00:15:30;;;;;;;3.37;3.13;;;;;;;24.06;38.94;94868.31;6162989;28;104146;-77
2022/09/13 00:18:33;;;;;;;4.20;2.67;;;;;;;24.04;38.79;94855.28;6162692;28;103565;-76
2022/09/13 00:21:38;;;;;;;3.07;2.87;;;;;;;24.09;38.87;94863.13;6161429;28;103844;-77
2022/09/13 00:24:41;;;;;;;3.23;3.03;;;;;;;24.09;39.00;94857.75;6161721;28;104253;-76
2022/09/13 00:27:45;;;;;;;2.73;2.53;;;;;;;24.08;39.04;94850.84;6162602;28;103501;-77
2022/09/13 00:30:48;;;;;;;5.20;3.10;;;;;;;24.05;39.22;94853.41;6165900;28;102979;-76
2022/09/13 00:33:51;;;;;;;4.20;3.43;;;;;;;24.04;39.10;94849.16;6135122;28;103036;-76
2022/09/13 00:36:56;;;;;;;2.80;2.60;;;;;;;23.97;38.93;94832.78;6164269;28;106504;-77
2022/09/13 00:39:59;;;;;;;4.33;2.80;;;;;;;24.01;39.15;94847.09;6150117;28;103121;-77
2022/09/13 00:43:02;;;;;;;3.10;2.90;;;;;;;24.02;38.97;94849.44;6165437;28;103218;-77
2022/09/13 00:46:06;;;;;;;2.97;2.70;;;;;;;24.00;39.33;94848.22;6155117;28;103275;-76
2022/09/13 00:49:15;;;;;;;3.40;3.20;;;;;;;24.00;38.99;94837.53;6162359;28;103459;-76
2022/09/13 00:52:23;;;;;;;3.27;3.03;;;;;;;24.00;39.29;94842.88;6164394;28;105555;-76
2022/09/13 00:55:30;;;;;;;3.57;3.27;;;;;;;23.99;39.46;94839.38;6156868;28;103276;-76
2022/09/13 00:58:40;;;;;;;3.40;3.10;;;;;;;23.96;39.23;94842.69;6161921;28;103158;-78
2022/09/13 01:01:48;;;;;;;3.70;3.33;;;;;;;23.97;39.27;94832.78;6162302;28;104282;-76
2022/09/13 01:04:51;;;;;;;3.83;3.40;;;;;;;23.97;39.79;94838.13;6164020;28;103146;-76
2022/09/13 01:07:58;;;;;;;3.27;3.00;;;;;;;23.98;39.56;94835.13;6157294;28;103831;-76
2022/09/13 01:11:04;;;;;;;4.30;3.57;;;;;;;23.97;39.49;94843.47;6163655;28;103620;-76
2022/09/13 01:14:09;;;;;;;3.90;3.57;;;;;;;23.88;39.58;94843.53;6165163;28;106405;-76
2022/09/13 01:17:12;;;;;;;3.73;3.43;;;;;;;23.92;39.79;94839.13;6164624;28;103670;-76
2022/09/13 01:20:16;;;;;;;3.93;3.50;;;;;;;23.89;39.33;94829.84;6167704;28;103567;-77
2022/09/13 01:24:01;;;;;;;4.57;4.17;;;;;;;23.89;39.36;94832.53;6165767;28;103559;-78
2022/09/13 01:27:29;;;;;;;4.97;3.93;;;;;;;23.84;39.59;94832.69;6163497;28;104095;-78
2022/09/13 01:30:37;;;;;;;3.77;3.57;;;;;;;23.84;39.35;94824.66;6153804;28;103582;-79
2022/09/13 01:33:59;;;;;;;4.40;4.10;;;;;;;23.82;39.71;94832.22;6141952;28;103091;-79
2022/09/13 01:37:22;;;;;;;4.20;3.90;;;;;;;23.84;39.73;94834.56;6157442;28;103921;-78
2022/09/13 01:40:38;;;;;;;4.60;4.20;;;;;;;23.81;39.69;94819.97;6153851;28;103166;-79
2022/09/13 01:43:53;;;;;;;4.03;3.83;;;;;;;23.78;39.87;94825.97;6149543;28;103904;-77
2022/09/13 01:47:06;;;;;;;4.00;3.80;;;;;;;23.80;40.12;94822.97;6160184;28;104059;-79
2022/09/13 01:50:18;;;;;;;4.33;4.03;;;;;;;23.80;39.57;94814.94;6162453;28;103316;-77
2022/09/13 01:53:33;;;;;;;4.37;4.07;;;;;;;23.82;39.78;94815.41;6154511;28;103606;-76
2022/09/13 01:56:43;;;;;;;4.23;3.93;;;;;;;23.83;39.73;94812.41;6161367;28;103469;-76
2022/09/13 01:59:50;;;;;;;4.27;3.97;;;;;;;23.84;39.86;94813.97;6162305;28;105301;-78
2022/09/13 02:03:03;;;;;;;4.00;3.70;;;;;;;23.82;39.59;94818.88;6161004;28;103441;-77
2022/09/13 02:06:10;;;;;;;4.30;4.00;;;;;;;23.81;39.95;94817.31;6154957;28;104123;-79
2022/09/13 02:09:18;;;;;;;4.40;4.10;;;;;;;23.82;39.68;94818.09;6158252;28;103029;-80
2022/09/13 02:12:26;;;;;;;4.20;3.90;;;;;;;23.79;39.61;94816.06;6162073;28;103012;-78
2022/09/13 02:15:34;;;;;;;4.47;4.07;;;;;;;23.76;39.77;94811.38;6151908;28;103554;-76
2022/09/13 02:18:40;;;;;;;3.97;3.77;;;;;;;23.75;39.55;94815.94;6161271;28;103073;-79
2022/09/13 02:21:46;;;;;;;3.63;3.30;;;;;;;23.77;39.63;94813.72;6162368;28;103531;-79
2022/09/13 02:24:55;;;;;;;4.00;3.70;;;;;;;23.79;39.92;94810.72;6154857;28;103093;-79
2022/09/13 02:28:03;;;;;;;3.70;3.50;;;;;;;23.78;40.01;94809.94;6155059;28;103739;-79
2022/09/13 02:31:09;;;;;;;3.50;3.27;;;;;;;23.78;39.75;94809.16;6162283;28;103208;-79
2022/09/13 02:34:19;;;;;;;3.80;3.50;;;;;;;23.78;40.24;94809.94;6162115;28;103191;-80
2022/09/13 02:37:25;;;;;;;3.73;3.43;;;;;;;23.80;40.06;94815.75;6161438;28;103279;-79
2022/09/13 02:40:33;;;;;;;3.80;3.43;;;;;;;23.77;39.68;94808.38;6154774;28;104270;-79
2022/09/13 02:43:40;;;;;;;3.77;3.47;;;;;;;23.76;39.66;94812.16;6159112;28;105929;-79
2022/09/13 02:46:58;;;;;;;3.70;3.40;;;;;;;23.77;40.04;94815.59;6158372;28;104312;-79
2022/09/13 02:50:13;;;;;;;3.73;3.43;;;;;;;23.77;39.88;94812.94;6151037;28;103558;-76
2022/09/13 02:53:26;;;;;;;3.97;3.20;;;;;;;23.75;40.04;94815.94;6161286;28;103228;-79
2022/09/13 02:56:40;;;;;;;3.60;3.30;;;;;;;23.71;39.92;94809.66;6161152;28;104219;-79
2022/09/13 02:59:43;;;;;;;5.07;3.53;;;;;;;23.73;40.10;94815.47;6162325;28;103137;-79
2022/09/13 03:02:49;;;;;;;3.47;3.17;;;;;;;23.73;39.81;94818.13;6154200;28;103709;-81
2022/09/13 03:05:54;;;;;;;3.53;3.33;;;;;;;23.76;39.92;94814.81;6162678;28;103013;-79
2022/09/13 03:09:01;;;;;;;3.67;3.37;;;;;;;23.71;40.52;94809.66;6162929;28;103208;-80
2022/09/13 03:12:24;;;;;;;3.10;2.90;;;;;;;23.71;40.27;94816.91;6159243;28;103570;-77
2022/09/13 03:15:45;;;;;;;4.13;3.73;;;;;;;23.65;40.83;94820.84;6161535;28;104065;-78
2022/09/13 03:19:19;;;;;;;6.20;5.60;;;;;;;23.63;40.58;94821.16;6161181;28;103769;-77
2022/09/13 03:22:51;;;;;;;5.63;4.90;;;;;;;23.72;40.72;94819.25;6157922;28;103152;-77
2022/09/13 03:26:07;;;;;;;5.97;5.47;;;;;;;23.81;40.44;94819.97;6144800;28;103457;-76
2022/09/13 03:29:24;;;;;;;4.60;4.20;;;;;;;23.83;40.47;94819.66;6159650;28;103458;-77
2022/09/13 03:32:36;;;;;;;4.20;3.90;;;;;;;23.82;40.73;94821.53;6156697;28;106136;-76
2022/09/13 03:35:47;;;;;;;4.10;3.80;;;;;;;23.80;40.66;94820.31;6151748;28;103307;-78
2022/09/13 03:39:00;;;;;;;7.33;4.80;;;;;;;23.82;40.80;94821.53;6164171;28;103294;-78
2022/09/13 03:42:13;;;;;;;4.80;4.50;;;;;;;23.50;41.12;94825.59;6165859;28;103410;-75
2022/09/13 03:45:20;;;;;;;5.57;4.57;;;;;;;23.65;40.68;94823.50;6164555;28;104121;-75
2022/09/13 03:48:24;;;;;;;6.43;5.83;;;;;;;23.71;41.07;94827.59;6157719;28;103576;-76
2022/09/13 03:51:27;;;;;;;22.47;6.23;;;;;;;23.75;40.99;94828.50;6164992;28;103453;-79
2022/09/13 03:54:36;;;;;;;16.60;15.07;;;;;;;23.80;40.67;94828.31;6166169;28;103330;-78
2022/09/13 03:57:39;;;;;;;21.40;19.47;;;;;;;23.77;41.26;94828.97;6160148;28;103605;-76
2022/09/13 04:00:43;;;;;;;12.83;11.80;;;;;;;23.88;42.15;94828.28;6163182;28;103401;-77
2022/09/13 04:03:46;;;;;;;11.23;10.37;;;;;;;23.93;41.74;94831.88;6155525;28;103341;-76
2022/09/13 04:06:49;;;;;;;10.50;9.63;;;;;;;23.98;41.72;94835.13;6167353;28;103739;-78
2022/09/13 04:09:54;;;;;;;11.50;10.20;;;;;;;24.00;41.66;94835.63;6152961;28;103717;-77
2022/09/13 04:12:58;;;;;;;10.20;9.43;;;;;;;24.01;41.91;94834.53;6164138;28;103570;-77
2022/09/13 04:16:02;;;;;;;12.10;11.00;;;;;;;23.99;42.15;94831.34;6155074;28;103269;-77
2022/09/13 04:19:05;;;;;;;12.37;11.37;;;;;;;23.98;41.87;94827.13;6157505;28;103354;-75
2022/09/13 04:22:09;;;;;;;13.27;11.90;;;;;;;24.00;41.94;94826.81;6153534;28;103385;-76
2022/09/13 04:25:13;;;;;;;13.83;12.53;;;;;;;23.41;42.56;94829.41;6165638;28;103345;-77
2022/09/13 04:28:17;;;;;;;11.37;10.33;;;;;;;23.59;42.19;94822.91;6164930;28;103213;-76
2022/09/13 04:31:20;;;;;;;10.20;9.20;;;;;;;23.64;42.08;94829.94;6161789;28;103573;-76
2022/09/13 04:34:23;;;;;;;9.00;8.40;;;;;;;23.68;41.92;94830.88;6162194;28;106156;-79
2022/09/13 04:37:26;;;;;;;7.77;7.07;;;;;;;23.69;41.85;94833.25;6164838;28;103375;-77
2022/09/13 04:40:31;;;;;;;7.40;6.80;;;;;;;23.70;41.76;94840.16;6165427;28;103133;-77
2022/09/13 04:43:34;;;;;;;7.67;6.97;;;;;;;23.66;41.56;94847.22;6157160;28;103184;-77
2022/09/13 04:46:37;;;;;;;6.67;6.07;;;;;;;23.68;41.64;94857.59;6163976;28;103249;-77
2022/09/13 04:49:40;;;;;;;6.20;5.70;;;;;;;23.68;41.51;94853.03;6163970;28;105375;-77
2022/09/13 04:52:43;;;;;;;6.97;6.40;;;;;;;23.68;41.77;94855.69;6163763;28;105906;-77
2022/09/13 04:55:47;;;;;;;6.83;6.33;;;;;;;23.69;41.93;94865.31;6156960;28;107165;-77
2022/09/13 04:58:51;;;;;;;17.47;15.67;;;;;;;23.53;41.91;94865.06;6164610;28;104040;-76
2022/09/13 05:01:54;;;;;;;13.80;12.43;;;;;;;23.62;41.92;94869.56;6165544;28;105959;-77
2022/09/13 05:04:57;;;;;;;12.33;11.30;;;;;;;23.66;41.78;94873.94;6165475;28;103227;-78
2022/09/13 05:08:01;;;;;;;13.23;12.00;;;;;;;23.66;41.94;94871.28;6158154;28;105441;-76
2022/09/13 05:11:07;;;;;;;17.83;16.13;;;;;;;23.68;42.13;94869.06;6165106;28;103246;-78
2022/09/13 05:14:12;;;;;;;28.10;25.53;;;;;;;23.69;42.09;94873.31;6165091;28;102793;-78
2022/09/13 05:17:15;;;;;;;21.70;19.70;;;;;;;23.68;41.90;94874.41;6156583;28;103399;-78
2022/09/13 05:20:18;;;;;;;17.50;15.97;;;;;;;23.61;41.80;94866.13;6163938;28;103577;-78
2022/09/13 05:23:21;;;;;;;19.50;17.60;;;;;;;23.64;41.71;94862.00;6163862;28;103497;-78
2022/09/13 05:26:28;;;;;;;16.73;13.17;;;;;;;23.62;41.81;94867.69;6165491;28;106290;-77
2022/09/13 05:29:31;;;;;;;14.73;13.33;;;;;;;23.69;41.83;94869.84;6154769;28;103403;-76
2022/09/13 05:32:34;;;;;;;14.10;12.60;;;;;;;23.66;41.71;94870.50;6164611;28;103876;-76
2022/09/13 05:35:40;;;;;;;13.33;12.23;;;;;;;23.68;41.99;94876.28;6164309;28;103803;-78
2022/09/13 05:38:44;;;;;;;18.63;16.90;;;;;;;23.70;41.91;94869.56;6164448;28;103400;-78
2022/09/13 05:41:48;;;;;;;28.30;25.50;;;;;;;23.71;42.28;94868.44;6156542;28;103463;-78
2022/09/13 05:44:51;;;;;;;20.67;18.83;;;;;;;23.71;42.39;94865.00;6164453;28;104172;-78
2022/09/13 05:47:55;;;;;;;18.10;16.20;;;;;;;23.78;42.42;94867.94;6164067;28;103436;-79
2022/09/13 05:51:04;;;;;;;16.90;15.30;;;;;;;23.78;42.21;94868.72;6158772;28;103772;-78
2022/09/13 05:54:11;;;;;;;12.90;11.63;;;;;;;23.79;42.74;94866.84;6160228;28;104271;-78
2022/09/13 05:57:15;;;;;;;13.30;11.83;;;;;;;23.86;42.68;94867.13;6164164;28;103198;-78
2022/09/13 06:00:18;;;;;;;13.00;11.80;;;;;;;23.92;42.61;94862.38;6163514;28;104388;-78
2022/09/13 06:03:21;;;;;;;12.60;11.20;;;;;;;23.96;42.56;94864.09;6155478;28;104051;-78
2022/09/13 06:06:26;;;;;;;10.93;9.93;;;;;;;24.02;42.61;94867.38;6164116;28;104818;-78
2022/09/13 06:09:29;;;;;;;11.47;8.37;;;;;;;24.01;42.32;94866.59;6163310;28;103210;-77
2022/09/13 06:12:34;;;;;;;7.33;6.63;;;;;;;24.07;41.96;94873.34;6163001;28;103216;-76
2022/09/13 06:15:37;;;;;;;5.37;4.97;;;;;;;24.10;41.17;94869.25;6154843;28;103063;-77
2022/09/13 06:18:45;;;;;;;5.57;5.07;;;;;;;24.08;41.00;94872.25;6164898;28;102687;-77
2022/09/13 06:21:48;;;;;;;6.83;6.10;;;;;;;24.09;41.32;94875.69;6163717;28;103934;-77
2022/09/13 06:24:51;;;;;;;6.63;6.07;;;;;;;24.17;40.98;94874.84;6160373;28;103001;-77
2022/09/13 06:27:56;;;;;;;7.77;6.27;;;;;;;24.23;40.39;94884.28;6159684;28;103214;-77
2022/09/13 06:31:01;;;;;;;6.57;5.97;;;;;;;24.26;40.59;94880.94;6163592;28;103475;-77
2022/09/13 06:34:04;;;;;;;6.30;5.80;;;;;;;24.34;40.62;94890.81;6163339;28;103482;-78
2022/09/13 06:37:07;;;;;;;5.63;5.13;;;;;;;24.37;40.21;94884.03;6155396;28;103513;-78
2022/09/13 06:40:12;;;;;;;5.67;5.17;;;;;;;24.40;40.31;94892.19;6164080;28;102990;-76
2022/09/13 06:43:17;;;;;;;5.40;4.90;;;;;;;24.41;39.77;94896.44;6163102;28;103394;-77
2022/09/13 06:46:20;;;;;;;5.27;4.83;;;;;;;24.42;40.01;94894.56;6163669;28;103485;-76
2022/09/13 06:49:28;;;;;;;5.27;4.87;;;;;;;24.42;40.19;94898.00;6154238;28;103194;-77
2022/09/13 06:52:31;;;;;;;5.03;4.63;;;;;;;24.43;39.76;94899.56;6163157;28;103248;-78
2022/09/13 06:55:35;;;;;;;4.60;4.20;;;;;;;24.48;39.65;94917.31;6161860;28;103121;-77
2022/09/13 06:58:41;;;;;;;4.30;4.00;;;;;;;24.52;39.62;94904.84;6161473;28;103418;-76
2022/09/13 07:01:44;;;;;;;4.40;4.10;;;;;;;24.56;39.56;94913.03;6159205;28;102995;-78
2022/09/13 07:04:47;;;;;;;4.17;3.87;;;;;;;24.58;39.60;94910.81;6162418;28;103157;-78
2022/09/13 07:07:50;;;;;;;4.43;4.13;;;;;;;24.63;39.37;94907.94;6163381;28;103301;-77
2022/09/13 07:10:57;;;;;;;4.50;4.10;;;;;;;24.67;39.02;94914.22;6154937;28;103273;-80
2022/09/13 07:14:02;;;;;;;4.73;4.13;;;;;;;24.70;39.45;94916.28;6165118;28;105930;-78
2022/09/13 07:17:05;;;;;;;3.70;3.40;;;;;;;24.73;39.53;94910.28;6167187;28;103229;-78
2022/09/13 07:20:09;;;;;;;4.10;3.50;;;;;;;24.73;39.43;94908.38;6166608;28;103138;-77
2022/09/13 07:23:12;;;;;;;4.23;3.67;;;;;;;24.76;39.07;94912.31;6159115;28;103079;-77
2022/09/13 07:26:17;;;;;;;3.60;3.40;;;;;;;24.81;39.30;94919.34;6165950;28;103739;-78
2022/09/13 07:29:23;;;;;;;4.00;3.60;;;;;;;24.78;38.95;94915.44;6167038;28;103087;-76
2022/09/13 07:32:26;;;;;;;6.67;3.50;;;;;;;24.81;38.92;94914.00;6166765;28;103074;-78
2022/09/13 07:35:29;;;;;;;3.43;3.23;;;;;;;24.84;39.06;94918.69;6158794;28;103031;-78
2022/09/13 07:38:34;;;;;;;4.10;3.70;;;;;;;24.83;38.80;94917.13;6167047;28;103382;-77
2022/09/13 07:41:37;;;;;;;3.63;3.33;;;;;;;24.85;38.79;94915.69;6166025;28;103210;-77
2022/09/13 07:44:41;;;;;;;3.33;3.13;;;;;;;24.91;39.10;94919.75;6161996;28;102701;-78
2022/09/13 07:47:44;;;;;;;3.33;3.03;;;;;;;24.93;39.05;94922.88;6165672;28;104527;-78
2022/09/13 07:50:57;;;;;;;7.20;3.60;;;;;;;24.96;38.67;94921.44;6165762;28;103613;-77
2022/09/13 07:54:02;;;;;;;3.57;3.27;;;;;;;24.89;38.81;94919.28;6165936;28;103273;-77
2022/09/13 07:57:05;;;;;;;3.23;2.97;;;;;;;24.93;38.62;94919.41;6158130;28;103520;-77
2022/09/13 08:00:11;;;;;;;3.20;3.00;;;;;;;24.96;38.50;94922.22;6165868;28;103246;-77
2022/09/13 08:03:15;;;;;;;3.47;3.27;;;;;;;24.93;38.30;94922.09;6166246;28;103643;-76
2022/09/13 08:06:18;;;;;;;4.90;3.17;;;;;;;24.94;38.42;94927.13;6166173;28;103465;-77
2022/09/13 08:09:21;;;;;;;3.53;3.23;;;;;;;24.98;38.57;94924.56;6159116;28;103825;-76
2022/09/13 08:12:24;;;;;;;3.87;3.47;;;;;;;24.93;38.11;94917.53;6165954;28;103800;-77
2022/09/13 08:15:29;;;;;;;3.40;3.00;;;;;;;24.89;38.45;94930.00;6166515;28;103099;-77
2022/09/13 08:18:33;;;;;;;2.97;2.70;;;;;;;24.90;38.20;94923.53;6162184;28;103026;-77
2022/09/13 08:21:41;;;;;;;3.60;3.13;;;;;;;24.90;37.92;94923.53;6164107;28;102887;-77
2022/09/13 08:24:45;;;;;;;3.33;3.03;;;;;;;24.83;38.29;94917.91;6169874;28;104134;-77
2022/09/13 08:27:48;;;;;;;3.10;2.87;;;;;;;24.94;38.07;94924.44;6165599;28;102952;-78
2022/09/13 08:30:52;;;;;;;2.97;2.77;;;;;;;24.95;37.50;94915.31;6159106;28;103254;-77
2022/09/13 08:33:57;;;;;;;2.83;2.60;;;;;;;24.93;37.72;94914.84;6166304;28;103556;-77
2022/09/13 08:37:00;;;;;;;2.93;2.70;;;;;;;24.86;38.18;94911.91;6166733;28;103587;-78
2022/09/13 08:40:03;;;;;;;2.87;2.67;;;;;;;24.82;37.88;94911.00;6165743;28;103202;-78
2022/09/13 08:43:17;;;;;;;3.33;3.13;;;;;;;24.79;38.10;94915.09;6158935;28;103678;-79
2022/09/13 08:46:27;;;;;;;3.43;2.90;;;;;;;24.87;37.89;94908.13;6166525;28;103435;-79
2022/09/13 08:49:34;;;;;;;3.53;2.30;;;;;;;24.90;38.14;94904.81;6166605;28;103490;-80
2022/09/13 08:52:47;;;;;;;3.10;2.90;;;;;;;24.87;38.14;94905.47;6163491;28;103455;-80
2022/09/13 08:55:58;;;;;;;2.70;2.50;;;;;;;24.89;37.91;94900.56;6163764;28;103146;-81
2022/09/13 08:59:17;;;;;;;2.87;2.57;;;;;;;24.90;37.71;94901.34;6165415;28;103225;-78
2022/09/13 09:02:42;;;;;;;2.93;2.57;;;;;;;24.87;38.17;94908.13;6166134;28;103504;-78
2022/09/13 09:05:47;;;;;;;4.20;3.10;;;;;;;24.87;37.89;94908.13;6158696;28;103339;-77
2022/09/13 09:08:54;;;;;;;2.90;2.70;;;;;;;24.90;37.88;94902.13;6165691;28;102852;-79
2022/09/13 09:12:07;;;;;;;2.50;2.40;;;;;;;24.93;37.62;94898.78;6164926;28;103342;-79
2022/09/13 09:15:16;;;;;;;2.77;2.57;;;;;;;24.97;37.51;94899.69;6163204;28;103027;-79
2022/09/13 09:18:24;;;;;;;3.00;2.80;;;;;;;24.92;37.51;94902.56;6162135;28;103980;-80
2022/09/13 09:21:27;;;;;;;3.20;2.90;;;;;;;24.89;37.77;94910.47;6165587;28;103267;-78
2022/09/13 09:24:35;;;;;;;3.90;2.47;;;;;;;24.85;37.91;94899.63;6165680;28;102714;-78
2022/09/13 09:27:39;;;;;;;2.70;2.50;;;;;;;24.84;37.84;94898.06;6157816;28;103133;-79
2022/09/13 09:30:50;;;;;;;2.40;2.20;;;;;;;24.82;37.45;94904.84;6164500;28;103260;-78
2022/09/13 09:34:08;;;;;;;2.80;2.60;;;;;;;24.86;37.74;94903.88;6164616;28;103959;-78
2022/09/13 09:37:19;;;;;;;15.80;2.97;;;;;;;24.83;37.32;94895.72;6164892;28;105834;-77
2022/09/13 09:40:23;;;;;;;2.67;2.47;;;;;;;24.81;36.75;94895.25;6157914;28;103509;-79
2022/09/13 09:43:36;;;;;;;2.90;2.10;;;;;;;24.81;37.51;94876.53;6164759;28;104553;-78
2022/09/13 09:46:42;;;;;;;2.40;2.30;;;;;;;24.82;37.91;94878.09;6165147;28;102699;-78
2022/09/13 09:53:14;;;;;;;2.70;2.37;;;;;;;24.80;37.78;94883.75;6165747;28;103122;-78
2022/09/13 09:56:23;;;;;;;3.97;2.50;;;;;;;24.79;37.70;94880.31;6165746;28;104117;-79
2022/09/13 09:59:28;;;;;;;1.93;1.83;;;;;;;24.78;37.50;94875.28;6166268;28;103363;-78
2022/09/13 10:02:32;;;;;;;3.97;2.43;;;;;;;24.77;37.94;94874.50;6156810;28;103742;-79
2022/09/13 10:05:37;;;;;;;5.03;2.37;;;;;;;24.75;37.74;94867.91;6165655;28;103473;-79
2022/09/13 10:08:44;;;;;;;2.20;2.00;;;;;;;24.81;37.67;94865.81;6165094;28;103269;-78
2022/09/13 10:11:50;;;;;;;2.60;2.40;;;;;;;24.77;37.21;94865.69;6161352;28;103560;-79
2022/09/13 10:15:05;;;;;;;2.30;2.10;;;;;;;24.79;37.24;94852.75;6159999;28;103453;-78
2022/09/13 10:18:16;;;;;;;2.20;2.10;;;;;;;24.84;36.66;94846.41;6164968;28;106197;-80
2022/09/13 10:21:40;;;;;;;2.40;2.20;;;;;;;24.84;36.82;94849.09;6165267;28;104948;-79
2022/09/13 10:24:43;;;;;;;2.50;2.20;;;;;;;24.79;36.82;94842.06;6156864;28;103586;-79
2022/09/13 10:27:50;;;;;;;3.03;2.73;;;;;;;24.81;36.70;94844.41;6164949;28;102899;-79
2022/09/13 10:30:56;;;;;;;2.47;2.37;;;;;;;24.78;37.43;94841.28;6165372;28;103604;-79
2022/09/13 10:34:02;;;;;;;3.63;2.13;;;;;;;24.76;37.51;94838.16;6162800;28;103078;-78
2022/09/13 10:37:18;;;;;;;2.00;1.90;;;;;;;24.81;37.52;94844.41;6156504;28;103436;-78
2022/09/13 10:40:27;;;;;;;2.07;1.97;;;;;;;24.79;37.17;94832.13;6164466;28;106000;-78
2022/09/13 10:43:31;;;;;;;2.67;2.47;;;;;;;24.82;37.58;94824.56;6165425;28;102909;-78
2022/09/13 10:46:38;;;;;;;2.10;2.00;;;;;;;24.84;36.92;94835.72;6157918;28;103719;-78
2022/09/13 10:49:46;;;;;;;2.10;2.00;;;;;;;24.84;37.17;94825.00;6162924;28;103581;-78
2022/09/13 10:52:53;;;;;;;2.40;2.30;;;;;;;24.83;37.10;94821.53;6163461;28;103409;-77
2022/09/13 10:55:56;;;;;;;2.63;2.43;;;;;;;24.84;36.89;94822.34;6163912;28;103391;-79
2022/09/13 10:59:16;;;;;;;2.60;2.40;;;;;;;24.84;37.24;94811.63;6155691;28;103196;-78
2022/09/13 11:02:49;;;;;;;2.10;2.00;;;;;;;24.84;37.13;94822.34;6163344;28;103382;-77
2022/09/13 11:05:59;;;;;;;3.90;2.13;;;;;;;24.82;36.74;94814.63;6161929;28;103301;-77
2022/09/13 11:09:10;;;;;;;2.80;2.57;;;;;;;24.83;37.00;94818.88;6160143;28;105428;-78
2022/09/13 11:12:20;;;;;;;2.80;2.60;;;;;;;24.84;36.80;94817.75;6163054;28;103160;-78
2022/09/13 11:15:34;;;;;;;2.53;2.37;;;;;;;24.84;36.98;94812.41;6163554;28;103804;-80
2022/09/13 11:19:05;;;;;;;2.37;2.27;;;;;;;24.80;37.18;94816.84;6163350;28;103076;-78
2022/09/13 11:22:27;;;;;;;2.20;2.10;;;;;;;24.80;37.05;94816.84;6156425;28;103540;-77
2022/09/13 11:25:53;;;;;;;2.63;2.33;;;;;;;24.81;36.69;94809.59;6163880;28;103736;-77
2022/09/13 11:29:06;;;;;;;2.60;2.43;;;;;;;24.81;37.11;94796.22;6160961;28;103683;-78
2022/09/13 11:32:24;;;;;;;2.30;2.20;;;;;;;24.77;37.10;94796.88;6156142;28;103542;-78
2022/09/13 11:35:47;;;;;;;2.37;2.27;;;;;;;24.78;37.38;94800.34;6163229;28;104391;-78
2022/09/13 11:39:02;;;;;;;2.30;2.20;;;;;;;24.75;36.42;94793.75;6159631;28;103093;-78
2022/09/13 11:42:25;;;;;;;3.13;2.93;;;;;;;24.78;36.99;94793.09;6163258;28;103223;-78
2022/09/13 11:45:29;;;;;;;2.40;2.30;;;;;;;24.75;36.49;94788.41;6157058;28;105531;-78
2022/09/13 11:49:00;;;;;;;2.83;2.63;;;;;;;24.75;36.85;94785.72;6163384;28;104213;-78
2022/09/13 11:52:14;;;;;;;2.10;2.00;;;;;;;24.74;36.87;94786.84;6162758;28;103129;-79
2022/09/13 11:55:21;;;;;;;2.67;2.47;;;;;;;24.73;37.35;94784.50;6155761;28;103571;-80
2022/09/13 11:58:32;;;;;;;3.20;2.53;;;;;;;24.75;37.36;94776.94;6163323;28;104922;-80
2022/09/13 12:01:42;;;;;;;2.43;2.20;;;;;;;24.81;37.19;94782.84;6167241;28;103536;-80
2022/09/13 12:04:52;;;;;;;2.80;2.60;;;;;;;24.85;37.63;94775.72;6167773;28;103442;-79
2022/09/13 12:08:20;;;;;;;3.07;2.40;;;;;;;24.83;37.68;94777.94;6162052;28;103039;-80
2022/09/13 12:11:27;;;;;;;2.33;2.13;;;;;;;24.87;37.87;94784.22;6165776;28;103037;-81
2022/09/13 12:14:44;;;;;;;3.90;2.90;;;;;;;24.84;37.68;94780.28;6167411;28;104148;-78
2022/09/13 12:17:52;;;;;;;2.67;2.47;;;;;;;24.81;37.86;94778.28;6159015;28;103109;-80
2022/09/13 12:20:59;;;;;;;2.90;2.17;;;;;;;24.75;37.52;94769.69;6166034;28;103580;-78
2022/09/13 12:24:08;;;;;;;2.70;2.37;;;;;;;24.73;37.29;94779.94;6166688;28;103702;-78
2022/09/13 12:27:22;;;;;;;3.17;2.87;;;;;;;24.71;36.99;94773.34;6166545;28;103444;-78
2022/09/13 12:30:33;;;;;;;2.20;2.10;;;;;;;24.71;37.23;94768.00;6158561;28;103329;-78
2022/09/13 12:33:39;;;;;;;3.67;2.80;;;;;;;24.71;36.79;94771.44;6167810;28;106308;-80
2022/09/13 12:37:26;;;;;;;3.00;2.80;;;;;;;24.70;36.84;94774.47;6167238;28;103176;-78
2022/09/13 12:40:46;;;;;;;2.53;2.33;;;;;;;24.69;37.10;94778.22;6036675;28;103729;-77
2022/09/13 12:44:21;;;;;;;2.73;2.53;;;;;;;24.68;36.84;94771.31;6166698;28;103268;-78
2022/09/13 12:47:57;;;;;;;2.93;2.70;;;;;;;24.65;36.49;94769.25;6166661;28;103225;-78
2022/09/13 12:51:14;;;;;;;2.10;2.00;;;;;;;24.64;36.84;94757.00;6158159;28;104273;-77
2022/09/13 12:54:52;;;;;;;2.50;2.30;;;;;;;24.64;36.50;94768.47;6164449;28;103387;-77
2022/09/13 12:58:09;;;;;;;5.37;2.50;;;;;;;24.66;37.11;94757.44;6165670;28;103577;-78
2022/09/13 13:01:17;;;;;;;2.60;2.40;;;;;;;24.65;36.45;94771.94;6166331;28;106306;-80
2022/09/13 13:04:23;;;;;;;2.33;2.23;;;;;;;24.63;36.42;94766.13;6159075;28;105479;-77
2022/09/13 13:07:32;;;;;;;2.40;2.30;;;;;;;24.63;36.64;94779.50;6166137;28;104077;-79
2022/09/13 13:10:38;;;;;;;2.80;2.60;;;;;;;24.61;36.45;94771.03;6165135;28;103039;-80
2022/09/13 13:13:44;;;;;;;4.37;2.57;;;;;;;24.67;36.58;94770.50;6162664;28;103473;-79
2022/09/13 13:16:48;;;;;;;3.10;2.90;;;;;;;24.73;35.94;94768.44;6161868;28;103990;-81
2022/09/13 13:19:51;;;;;;;2.90;2.70;;;;;;;24.75;36.87;94775.03;6165428;28;103152;-79
2022/09/13 13:23:05;;;;;;;2.90;2.70;;;;;;;24.77;36.76;94774.69;6165414;28;103260;-81
2022/09/13 13:26:12;;;;;;;3.57;2.70;;;;;;;24.78;36.75;94773.59;6158834;28;103082;-80
2022/09/13 13:29:18;;;;;;;2.60;2.40;;;;;;;24.79;36.72;94783.97;6164852;28;103203;-81
2022/09/13 13:32:22;;;;;;;2.70;2.50;;;;;;;24.78;36.04;94785.06;6165796;28;103034;-79
2022/09/13 13:35:31;;;;;;;2.30;2.10;;;;;;;24.74;36.59;94772.69;6166295;28;102862;-82
2022/09/13 13:38:49;;;;;;;2.80;2.60;;;;;;;24.80;36.55;94774.03;6158456;28;103458;-80
2022/09/13 13:41:55;;;;;;;2.50;2.30;;;;;;;24.79;36.83;94783.19;6164716;28;103291;-79
2022/09/13 13:45:14;;;;;;;2.40;2.20;;;;;;;24.79;36.32;94783.97;6164869;28;103425;-80
2022/09/13 13:48:37;;;;;;;2.50;2.30;;;;;;;24.79;36.43;94778.59;6158837;28;103642;-81
2022/09/13 13:51:40;;;;;;;1.80;1.70;;;;;;;24.77;36.66;94788.06;6164516;28;103688;-78
2022/09/13 13:55:03;;;;;;;2.23;2.03;;;;;;;24.73;36.59;94796.00;6163431;28;103362;-79
2022/09/13 13:58:29;;;;;;;2.90;2.40;;;;;;;24.68;36.22;94793.50;6165026;28;103111;-78
2022/09/13 14:01:36;;;;;;;2.40;2.20;;;;;;;24.69;36.27;94800.41;6157589;28;103682;-79
2022/09/13 14:04:59;;;;;;;2.70;2.50;;;;;;;24.69;36.68;94795.06;6164327;28;103203;-80
2022/09/13 14:08:31;;;;;;;2.20;2.10;;;;;;;24.72;36.98;94788.28;6164034;28;103051;-80
2022/09/13 14:11:48;;;;;;;2.57;2.23;;;;;;;24.70;36.55;94785.16;6157139;28;104062;-81
2022/09/13 14:15:07;;;;;;;2.10;2.00;;;;;;;24.68;36.27;94776.66;6163973;28;103094;-82
2022/09/13 14:18:46;;;;;;;2.23;2.03;;;;;;;24.69;36.74;94797.72;6164539;28;102666;-79
2022/09/13 14:22:06;;;;;;;3.30;2.30;;;;;;;24.68;36.51;94803.41;6160001;28;103664;-78
2022/09/13 14:25:23;;;;;;;2.57;2.37;;;;;;;24.67;36.19;94799.94;6163153;28;105819;-78
2022/09/13 14:28:28;;;;;;;2.43;2.33;;;;;;;24.69;35.89;94799.63;6164089;28;107433;-80
2022/09/13 14:31:31;;;;;;;2.47;2.27;;;;;;;24.68;36.45;94798.84;6163775;28;103842;-79
2022/09/13 14:34:37;;;;;;;2.20;2.10;;;;;;;24.67;36.54;94793.78;6156760;28;105144;-79
2022/09/13 14:37:40;;;;;;;2.80;2.60;;;;;;;24.64;36.31;94791.78;6165263;28;103662;-79
2022/09/13 14:40:52;;;;;;;2.50;2.30;;;;;;;24.66;36.45;94806.38;6163946;28;103301;-78